createdAt,value
2019-03-02T00:01:45.889Z,10.37
2019-03-02T00:04:14.979Z,10.60
2019-03-02T00:06:44.635Z,8.57
2019-03-02T00:09:14.421Z,6.63
2019-03-02T00:11:44.459Z,7.53
2019-03-02T00:14:15.695Z,8.13
2019-03-02T00:16:45.917Z,7.50
2019-03-02T00:19:15.416Z,5.57
2019-03-02T00:21:44.962Z,10.20
2019-03-02T00:24:14.889Z,8.20
2019-03-02T00:26:45.945Z,13.00
2019-03-02T00:29:16.351Z,5.00
2019-03-02T00:31:46.027Z,12.93
2019-03-02T00:34:15.706Z,8.03
2019-03-02T00:36:45.759Z,10.67
2019-03-02T00:39:15.569Z,5.43
2019-03-02T00:41:47.102Z,3.60
2019-03-02T00:44:16.914Z,7.20
2019-03-02T00:46:46.502Z,5.40
2019-03-02T00:49:19.459Z,10.17
2019-03-02T00:51:47.666Z,6.90
2019-03-02T00:54:17.463Z,5.23
2019-03-02T00:56:47.220Z,4.47
2019-03-02T00:59:16.847Z,13.30
2019-03-02T01:01:46.610Z,11.50
2019-03-02T01:04:16.242Z,21.90
2019-03-02T01:06:48.709Z,8.73
2019-03-02T01:09:17.428Z,5.27
2019-03-02T01:11:47.197Z,5.03
2019-03-02T01:14:16.801Z,6.20
2019-03-02T01:16:46.568Z,4.00
2019-03-02T01:19:17.589Z,5.67
2019-03-02T01:21:47.805Z,6.63
2019-03-02T01:24:17.398Z,6.87
2019-03-02T01:26:47.223Z,6.37
2019-03-02T01:29:19.134Z,5.77
2019-03-02T01:31:48.274Z,3.87
2019-03-02T01:34:18.033Z,5.50
2019-03-02T01:36:47.744Z,7.90
2019-03-02T01:39:17.496Z,7.47
2019-03-02T01:41:47.201Z,7.00
2019-03-02T01:44:17.533Z,10.70
2019-03-02T01:46:47.461Z,6.50
2019-03-02T01:49:17.302Z,5.77
2019-03-02T01:51:46.837Z,6.22
2019-03-02T01:54:17.863Z,8.10
2019-03-02T01:56:47.769Z,4.40
2019-03-02T01:59:17.598Z,7.85
2019-03-02T02:01:47.175Z,6.87
2019-03-02T02:04:18.902Z,8.23
2019-03-02T02:06:48.310Z,7.43
2019-03-02T02:09:18.092Z,5.47
2019-03-02T02:11:49.830Z,5.70
2019-03-02T02:14:19.905Z,8.47
2019-03-02T02:16:49.540Z,5.07
2019-03-02T02:19:19.425Z,4.93
2019-03-02T02:21:50.386Z,7.23
2019-03-02T02:24:21.790Z,7.07
2019-03-02T02:26:51.407Z,5.90
2019-03-02T02:29:21.233Z,6.17
2019-03-02T02:31:51.054Z,4.73
2019-03-02T02:34:22.216Z,7.27
2019-03-02T02:36:53.283Z,5.60
2019-03-02T02:39:24.102Z,7.40
2019-03-02T02:41:53.609Z,6.47
2019-03-02T02:44:23.463Z,6.90
2019-03-02T02:46:53.423Z,7.63
2019-03-02T02:49:23.836Z,8.77
2019-03-02T02:51:53.706Z,7.47
2019-03-02T02:54:24.602Z,9.33
2019-03-02T02:56:58.857Z,10.50
2019-03-02T02:59:26.017Z,11.50
2019-03-02T03:01:55.666Z,11.07
2019-03-02T03:04:25.385Z,9.27
2019-03-02T03:06:55.190Z,8.80
2019-03-02T03:09:50.711Z,7.40
2019-03-02T03:12:22.791Z,6.50
2019-03-02T03:14:54.276Z,7.43
2019-03-02T03:17:28.098Z,8.90
2019-03-02T03:19:55.260Z,9.77
2019-03-02T03:22:25.173Z,8.50
2019-03-02T03:24:54.994Z,4.83
2019-03-02T03:27:24.632Z,5.13
2019-03-02T03:29:54.546Z,4.17
2019-03-02T03:32:24.197Z,7.40
2019-03-02T03:34:53.930Z,4.97
2019-03-02T03:37:23.610Z,5.30
2019-03-02T03:39:53.388Z,7.23
2019-03-02T03:42:24.682Z,4.90
2019-03-02T03:44:54.832Z,5.40
2019-03-02T03:47:26.460Z,7.23
2019-03-02T03:49:56.405Z,5.53
2019-03-02T03:52:26.008Z,4.60
2019-03-02T03:54:55.746Z,4.87
2019-03-02T03:57:25.593Z,3.97
2019-03-02T03:59:58.700Z,4.80
2019-03-02T04:02:31.256Z,2.73
2019-03-02T04:05:07.011Z,3.27
2019-03-02T04:07:32.076Z,5.27
2019-03-02T04:10:02.109Z,5.00
2019-03-02T04:12:32.057Z,2.80
2019-03-02T04:15:03.106Z,4.97
2019-03-02T04:17:34.276Z,5.37
2019-03-02T04:20:08.147Z,5.92
2019-03-02T04:22:39.885Z,4.77
2019-03-02T04:25:07.872Z,4.05
2019-03-02T04:27:37.471Z,5.07
2019-03-02T04:30:07.731Z,5.23
2019-03-02T04:32:37.663Z,6.30
2019-03-02T04:35:08.048Z,4.60
2019-03-02T04:37:37.604Z,4.97
2019-03-02T04:40:07.670Z,6.60
2019-03-02T04:42:37.536Z,6.20
2019-03-02T04:45:07.412Z,4.40
2019-03-02T04:47:37.515Z,5.30
2019-03-02T04:50:07.790Z,5.50
2019-03-02T04:52:38.211Z,4.53
2019-03-02T04:55:09.568Z,4.27
2019-03-02T04:57:39.504Z,5.57
2019-03-02T05:00:12.159Z,4.50
2019-03-02T05:02:42.048Z,4.50
2019-03-02T05:05:11.893Z,3.83
2019-03-02T05:07:41.587Z,3.83
2019-03-02T05:10:12.337Z,4.00
2019-03-02T05:12:42.004Z,6.70
2019-03-02T05:15:16.117Z,5.97
2019-03-02T05:17:46.105Z,6.10
2019-03-02T05:20:16.027Z,3.93
2019-03-02T05:22:45.580Z,4.63
2019-03-02T05:25:15.635Z,7.13
2019-03-02T05:27:46.946Z,4.73
2019-03-02T05:30:16.899Z,6.03
2019-03-02T05:32:47.836Z,5.43
2019-03-02T05:35:17.931Z,5.00
2019-03-02T05:37:47.593Z,5.75
2019-03-02T05:40:17.179Z,8.10
2019-03-02T05:42:50.923Z,7.60
2019-03-02T05:45:20.350Z,5.05
2019-03-02T05:47:49.997Z,8.13
2019-03-02T05:50:19.817Z,5.53
2019-03-02T05:52:50.757Z,5.13
2019-03-02T05:55:20.880Z,10.08
2019-03-02T05:57:50.479Z,5.60
2019-03-02T06:00:21.460Z,5.03
2019-03-02T06:02:51.329Z,5.73
2019-03-02T06:05:20.826Z,6.87
2019-03-02T06:07:53.884Z,5.87
2019-03-02T06:10:25.355Z,7.40
2019-03-02T06:12:53.207Z,5.27
2019-03-02T06:15:23.006Z,8.20
2019-03-02T06:17:52.603Z,5.67
2019-03-02T06:20:22.352Z,8.07
2019-03-02T06:22:52.299Z,5.80
2019-03-02T06:25:23.667Z,7.53
2019-03-02T06:27:53.376Z,7.40
2019-03-02T06:30:23.109Z,6.97
2019-03-02T06:32:52.749Z,6.33
2019-03-02T06:35:22.541Z,10.17
2019-03-02T06:37:52.918Z,6.90
2019-03-02T06:40:25.129Z,7.93
2019-03-02T06:42:54.819Z,7.10
2019-03-02T06:45:24.634Z,7.60
2019-03-02T06:47:54.950Z,8.20
2019-03-02T06:50:24.667Z,7.17
2019-03-02T06:52:54.374Z,7.23
2019-03-02T06:55:24.673Z,8.20
2019-03-02T06:57:54.891Z,11.97
2019-03-02T07:00:25.050Z,12.67
2019-03-02T07:02:54.776Z,16.20
2019-03-02T07:05:24.385Z,21.17
2019-03-02T07:07:57.307Z,22.63
2019-03-02T07:10:38.596Z,23.77
2019-03-02T07:13:17.908Z,31.85
2019-03-02T07:15:46.886Z,33.10
2019-03-02T07:18:34.154Z,38.27
2019-03-02T07:21:06.347Z,43.33
2019-03-02T07:23:35.547Z,44.60
2019-03-02T07:26:05.265Z,47.93
2019-03-02T07:28:38.807Z,51.60
2019-03-02T07:31:06.937Z,47.37
2019-03-02T07:33:36.791Z,52.40
2019-03-02T07:36:06.442Z,51.03
2019-03-02T07:38:36.373Z,52.40
2019-03-02T07:41:07.792Z,55.80
2019-03-02T07:43:37.738Z,55.27
2019-03-02T07:46:08.047Z,53.87
2019-03-02T07:48:39.155Z,53.43
2019-03-02T07:51:08.814Z,51.10
2019-03-02T07:53:38.466Z,57.57
2019-03-02T07:56:08.287Z,47.23
2019-03-02T07:58:38.103Z,53.13
2019-03-02T08:01:07.784Z,47.90
2019-03-02T08:03:37.709Z,50.50
2019-03-02T08:06:07.539Z,53.47
2019-03-02T08:08:37.449Z,52.17
2019-03-02T08:11:10.600Z,47.67
2019-03-02T08:13:41.865Z,51.00
2019-03-02T08:16:12.114Z,49.93
2019-03-02T08:18:41.859Z,52.80
2019-03-02T08:21:11.578Z,53.97
2019-03-02T08:23:41.836Z,52.77
2019-03-02T08:26:11.597Z,53.40
2019-03-02T08:28:42.232Z,51.93
2019-03-02T08:31:13.080Z,52.70
2019-03-02T08:33:45.860Z,47.30
2019-03-02T08:36:16.964Z,45.20
2019-03-02T08:38:45.903Z,41.63
2019-03-02T08:41:15.683Z,43.57
2019-03-02T08:43:45.642Z,46.73
2019-03-02T08:46:15.426Z,45.33
2019-03-02T08:48:45.239Z,46.50
2019-03-02T08:51:15.133Z,77.90
2019-03-02T08:53:44.744Z,40.90
2019-03-02T08:56:14.669Z,40.80
2019-03-02T08:58:44.715Z,47.60
2019-03-02T09:01:15.376Z,43.83
2019-03-02T09:03:46.068Z,41.27
2019-03-02T09:06:15.704Z,35.23
2019-03-02T09:08:45.403Z,39.53
2019-03-02T09:11:15.187Z,36.97
2019-03-02T09:13:44.957Z,38.00
2019-03-02T09:16:15.052Z,41.03
2019-03-02T09:18:45.953Z,37.10
2019-03-02T09:21:16.102Z,37.93
2019-03-02T09:23:45.879Z,36.63
2019-03-02T09:26:15.900Z,39.87
2019-03-02T09:28:45.829Z,36.93
2019-03-02T09:31:25.557Z,45.53
2019-03-02T09:33:47.109Z,37.57
2019-03-02T09:36:16.690Z,44.00
2019-03-02T09:38:46.941Z,38.03
2019-03-02T09:41:16.770Z,36.70
2019-03-02T09:43:46.669Z,40.57
2019-03-02T09:46:16.460Z,41.43
2019-03-02T09:48:46.239Z,38.50
2019-03-02T09:51:16.030Z,41.10
2019-03-02T09:53:45.989Z,41.27
2019-03-02T09:56:16.073Z,42.57
2019-03-02T09:58:45.828Z,42.47
2019-03-02T10:01:15.564Z,36.63
2019-03-02T10:03:45.239Z,40.23
2019-03-02T10:06:14.835Z,41.37
2019-03-02T10:08:45.890Z,42.40
2019-03-02T10:11:15.646Z,37.87
2019-03-02T10:13:45.483Z,40.17
2019-03-02T10:16:15.254Z,40.57
2019-03-02T10:18:45.729Z,35.30
2019-03-02T10:21:16.494Z,45.03
2019-03-02T10:23:46.222Z,40.27
2019-03-02T10:26:15.984Z,34.23
2019-03-02T10:28:46.093Z,35.23
2019-03-02T10:31:15.882Z,41.73
2019-03-02T10:33:45.855Z,37.33
2019-03-02T10:36:15.622Z,40.37
2019-03-02T10:38:45.466Z,40.53
2019-03-02T10:41:16.708Z,30.87
2019-03-02T10:43:46.956Z,35.87
2019-03-02T10:46:16.668Z,52.57
2019-03-02T10:48:46.434Z,42.80
2019-03-02T10:51:16.356Z,38.73
2019-03-02T10:53:46.117Z,40.53
2019-03-02T10:56:15.895Z,35.87
2019-03-02T10:58:45.805Z,35.80
2019-03-02T11:01:15.494Z,29.53
2019-03-02T11:03:45.205Z,32.30
2019-03-02T11:06:29.617Z,27.53
2019-03-02T11:09:22.182Z,35.70
2019-03-02T11:12:07.080Z,27.73
2019-03-02T11:14:51.933Z,27.80
2019-03-02T11:17:59.831Z,27.37
2019-03-02T11:20:46.166Z,26.97
2019-03-02T11:23:34.902Z,26.97
2019-03-02T11:26:28.409Z,26.43
2019-03-02T11:29:38.693Z,53.07
2019-03-02T11:32:25.189Z,29.10
2019-03-02T11:35:10.395Z,26.87
2019-03-02T11:38:07.412Z,25.77
2019-03-02T11:41:09.163Z,39.53
2019-03-02T11:44:08.036Z,21.97
2019-03-02T11:46:50.799Z,26.97
2019-03-02T11:49:39.396Z,36.57
2019-03-02T11:52:19.519Z,33.97
2019-03-02T11:55:25.902Z,31.13
2019-03-02T11:58:33.500Z,32.20
2019-03-02T12:01:19.388Z,22.10
2019-03-02T12:04:11.949Z,32.53
2019-03-02T12:07:13.836Z,22.63
2019-03-02T12:10:05.311Z,36.27
2019-03-02T12:12:55.563Z,24.00
2019-03-02T12:15:36.652Z,25.50
2019-03-02T12:18:30.074Z,21.47
2019-03-02T12:21:20.888Z,18.37
2019-03-02T12:24:01.518Z,20.80
2019-03-02T12:26:56.261Z,21.90
2019-03-02T12:29:46.132Z,30.87
2019-03-02T12:32:40.298Z,22.53
2019-03-02T12:35:34.526Z,23.33
2019-03-02T12:38:26.726Z,45.83
2019-03-02T12:41:18.042Z,24.13
2019-03-02T12:44:05.383Z,34.77
2019-03-02T12:47:00.057Z,30.73
2019-03-02T12:49:54.652Z,20.07
2019-03-02T12:52:38.037Z,18.17
2019-03-02T12:55:35.980Z,27.03
2019-03-02T12:58:23.261Z,25.00
2019-03-02T13:01:02.507Z,13.27
2019-03-02T13:03:38.796Z,20.73
2019-03-02T13:06:19.896Z,22.70
2019-03-02T13:09:08.601Z,15.80
2019-03-02T13:11:52.072Z,21.27
2019-03-02T13:14:46.885Z,22.80
2019-03-02T13:17:33.180Z,28.03
2019-03-02T13:20:40.592Z,18.83
2019-03-02T13:23:44.285Z,23.63
2019-03-02T13:26:22.615Z,24.90
2019-03-02T13:29:00.543Z,16.47
2019-03-02T13:31:52.042Z,20.63
2019-03-02T13:34:47.245Z,14.90
2019-03-02T13:37:27.191Z,43.57
2019-03-02T13:40:14.521Z,20.27
2019-03-02T13:43:04.648Z,22.73
2019-03-02T13:45:51.858Z,28.87
2019-03-02T13:48:33.393Z,21.03
2019-03-02T13:51:31.417Z,24.60
2019-03-02T13:54:19.936Z,22.53
2019-03-02T13:57:07.301Z,25.80
2019-03-02T14:00:07.786Z,27.53
2019-03-02T14:02:53.853Z,26.70
2019-03-02T14:05:51.586Z,26.43
2019-03-02T14:08:43.421Z,24.57
2019-03-02T14:11:41.063Z,23.43
2019-03-02T14:14:20.779Z,26.27
2019-03-02T14:17:11.822Z,19.93
2019-03-02T14:19:58.513Z,25.03
2019-03-02T14:22:36.915Z,26.93
2019-03-02T14:25:26.668Z,25.40
2019-03-02T14:28:12.255Z,25.73
2019-03-02T14:31:19.617Z,29.50
2019-03-02T14:34:02.924Z,28.47
2019-03-02T14:36:42.266Z,27.13
2019-03-02T14:39:40.820Z,30.53
2019-03-02T14:42:27.841Z,31.17
2019-03-02T14:45:18.761Z,27.27
2019-03-02T14:48:14.859Z,26.77
2019-03-02T14:51:02.046Z,26.57
2019-03-02T14:53:50.891Z,28.10
2019-03-02T14:56:53.248Z,30.03
2019-03-02T14:59:37.663Z,22.73
2019-03-02T15:02:31.614Z,30.70
2019-03-02T15:05:27.679Z,30.07
2019-03-02T15:08:17.268Z,35.57
2019-03-02T15:11:18.150Z,31.83
2019-03-02T15:14:09.763Z,28.23
2019-03-02T15:16:48.868Z,36.40
2019-03-02T15:19:39.583Z,28.77
2019-03-02T15:22:25.348Z,30.53
2019-03-02T15:25:00.972Z,26.50
2019-03-02T15:27:56.844Z,27.93
2019-03-02T15:30:55.204Z,29.67
2019-03-02T15:33:53.280Z,29.50
2019-03-02T15:36:44.091Z,31.33
2019-03-02T15:39:34.670Z,28.43
2019-03-02T15:42:22.386Z,25.30
2019-03-02T15:45:02.548Z,20.43
2019-03-02T15:47:51.712Z,28.00
2019-03-02T15:50:43.702Z,20.30
2019-03-02T15:53:32.635Z,26.40
2019-03-02T15:56:23.107Z,26.90
2019-03-02T15:59:10.440Z,23.43
2019-03-02T16:02:08.679Z,23.20
2019-03-02T16:05:11.281Z,20.50
2019-03-02T16:08:03.457Z,24.13
2019-03-02T16:10:58.359Z,26.97
2019-03-02T16:13:50.010Z,30.00
2019-03-02T16:16:43.534Z,24.93
2019-03-02T16:19:25.102Z,29.23
2019-03-02T16:22:09.563Z,22.37
2019-03-02T16:25:00.732Z,24.20
2019-03-02T16:28:06.106Z,27.70
2019-03-02T16:30:44.500Z,24.83
2019-03-02T16:33:31.205Z,25.93
2019-03-02T16:36:21.352Z,21.67
2019-03-02T16:39:10.446Z,19.03
2019-03-02T16:41:54.312Z,23.10
2019-03-02T16:44:36.016Z,23.90
2019-03-02T16:47:25.361Z,23.47
2019-03-02T16:50:16.807Z,19.67
2019-03-02T16:53:07.903Z,24.97
2019-03-02T16:56:08.872Z,21.93
2019-03-02T16:59:04.080Z,23.33
2019-03-02T17:01:44.597Z,52.83
2019-03-02T17:04:51.314Z,28.40
2019-03-02T17:07:28.488Z,23.17
2019-03-02T17:10:23.838Z,21.57
2019-03-02T17:13:16.261Z,47.57
2019-03-02T17:16:03.807Z,21.97
2019-03-02T17:18:43.712Z,17.00
2019-03-02T17:21:20.632Z,24.27
2019-03-02T17:23:58.189Z,19.80
2019-03-02T17:26:42.104Z,19.57
2019-03-02T17:29:48.742Z,21.47
2019-03-02T17:32:37.000Z,21.27
2019-03-02T17:35:33.200Z,20.00
2019-03-02T17:38:34.452Z,23.70
2019-03-02T17:41:14.960Z,24.07
2019-03-02T17:44:02.549Z,18.60
2019-03-02T17:47:00.166Z,17.20
2019-03-02T17:49:44.643Z,17.30
2019-03-02T17:52:30.743Z,32.83
2019-03-02T17:55:11.604Z,14.60
2019-03-02T17:58:06.390Z,17.57
2019-03-02T18:00:53.162Z,14.63
2019-03-02T18:03:50.055Z,19.10
2019-03-02T18:06:23.898Z,11.73
2019-03-02T18:08:58.415Z,12.37
2019-03-02T18:11:53.166Z,15.70
2019-03-02T18:14:44.837Z,14.47
2019-03-02T18:17:32.347Z,13.03
2019-03-02T18:20:02.604Z,10.70
2019-03-02T18:22:33.716Z,14.17
2019-03-02T18:25:04.016Z,6.90
2019-03-02T18:27:37.272Z,13.27
2019-03-02T18:30:09.991Z,7.97
2019-03-02T18:32:40.143Z,12.17
2019-03-02T18:35:10.318Z,12.03
2019-03-02T18:37:40.217Z,14.53
2019-03-02T18:40:11.893Z,12.83
2019-03-02T18:42:41.874Z,16.80
2019-03-02T18:45:12.712Z,14.63
2019-03-02T18:47:43.123Z,10.60
2019-03-02T18:50:39.469Z,8.90
2019-03-02T18:53:10.069Z,10.63
2019-03-02T18:55:40.550Z,9.47
2019-03-02T18:58:11.588Z,8.93
2019-03-02T19:00:46.440Z,10.90
2019-03-02T19:03:16.669Z,16.10
2019-03-02T19:05:50.312Z,11.10
2019-03-02T19:08:19.575Z,12.63
2019-03-02T19:10:49.443Z,11.00
2019-03-02T19:13:22.269Z,12.00
2019-03-02T19:15:54.040Z,11.53
2019-03-02T19:18:37.169Z,9.90
2019-03-02T19:21:12.199Z,14.07
2019-03-02T19:23:53.015Z,9.50
2019-03-02T19:26:48.327Z,13.97
2019-03-02T19:29:40.851Z,12.73
2019-03-02T19:32:23.675Z,8.17
2019-03-02T19:35:05.773Z,10.43
2019-03-02T19:37:45.153Z,11.73
2019-03-02T19:40:41.480Z,11.87
2019-03-02T19:48:30.854Z,10.13
2019-03-02T19:51:00.972Z,9.07
2019-03-02T19:53:31.765Z,12.10
2019-03-02T19:56:01.881Z,12.50
2019-03-02T19:58:32.313Z,12.87
2019-03-02T20:01:02.628Z,14.37
2019-03-02T20:03:34.311Z,13.67
2019-03-02T20:06:04.130Z,11.53
2019-03-02T20:08:34.180Z,13.37
2019-03-02T20:11:04.260Z,13.53
2019-03-02T20:13:34.758Z,11.67
2019-03-02T20:16:05.188Z,14.20
2019-03-02T20:18:36.003Z,15.23
2019-03-02T20:21:06.086Z,11.97
2019-03-02T20:23:37.335Z,10.43
2019-03-02T20:26:08.028Z,8.67
2019-03-02T20:28:37.844Z,12.83
2019-03-02T20:31:08.123Z,12.07
2019-03-02T20:33:38.807Z,11.37
2019-03-02T20:36:09.010Z,15.07
2019-03-02T20:38:40.578Z,12.67
2019-03-02T20:41:10.944Z,10.43
2019-03-02T20:43:49.735Z,14.17
2019-03-02T20:46:19.488Z,10.20
2019-03-02T20:48:49.672Z,14.23
2019-03-02T20:51:19.715Z,14.40
2019-03-02T20:53:49.561Z,14.67
2019-03-02T20:56:19.599Z,23.90
2019-03-02T20:58:49.967Z,13.00
2019-03-02T21:01:20.425Z,12.13
2019-03-02T21:03:50.710Z,10.63
2019-03-02T21:06:21.475Z,13.63
2019-03-02T21:08:51.716Z,14.00
2019-03-02T21:11:22.673Z,14.43
2019-03-02T21:13:52.670Z,14.17
2019-03-02T21:16:23.286Z,13.23
2019-03-02T21:18:53.190Z,15.07
2019-03-02T21:21:23.163Z,15.43
2019-03-02T21:23:53.700Z,17.97
2019-03-02T21:26:23.869Z,17.67
2019-03-02T21:28:53.625Z,14.23
2019-03-02T21:31:26.639Z,13.67
2019-03-02T21:33:57.063Z,18.67
2019-03-02T21:36:27.302Z,19.53
2019-03-02T21:38:58.080Z,17.23
2019-03-02T21:41:28.561Z,18.67
2019-03-02T21:43:58.595Z,15.93
2019-03-02T21:46:28.079Z,16.00
2019-03-02T21:49:03.506Z,12.07
2019-03-02T21:51:33.280Z,11.77
2019-03-02T21:54:03.805Z,14.10
2019-03-02T21:56:46.789Z,17.50
2019-03-02T21:59:10.370Z,13.80
2019-03-02T22:01:40.376Z,15.97
2019-03-02T22:04:10.318Z,18.33
2019-03-02T22:06:40.490Z,18.20
2019-03-02T22:09:10.751Z,18.03
2019-03-02T22:11:48.909Z,16.87
2019-03-02T22:14:22.809Z,15.70
2019-03-02T22:16:55.117Z,18.37
2019-03-02T22:19:28.259Z,21.27
2019-03-02T22:22:00.769Z,17.07
2019-03-02T22:24:34.264Z,14.17
2019-03-02T22:27:11.208Z,18.17
2019-03-02T22:29:41.641Z,15.83
2019-03-02T22:32:11.950Z,15.90
2019-03-02T22:34:42.152Z,15.67
2019-03-02T22:37:19.520Z,17.53
2019-03-02T22:39:49.704Z,16.13
2019-03-02T22:42:19.622Z,18.77
2019-03-02T22:44:49.573Z,18.63
2019-03-02T22:47:24.921Z,13.17
2019-03-02T22:49:56.166Z,13.87
2019-03-02T22:52:27.494Z,15.87
2019-03-02T22:55:00.444Z,15.40
2019-03-02T22:57:30.732Z,14.90
2019-03-02T23:00:46.390Z,12.40
2019-03-02T23:03:14.462Z,16.80
2019-03-02T23:05:50.084Z,15.37
2019-03-02T23:08:24.070Z,15.87
2019-03-02T23:10:56.250Z,18.07
2019-03-02T23:13:28.239Z,18.63
2019-03-02T23:15:58.213Z,21.40
2019-03-02T23:18:29.951Z,21.13
2019-03-02T23:21:04.064Z,22.70
2019-03-02T23:23:38.002Z,25.47
2019-03-02T23:26:15.678Z,22.63
2019-03-02T23:28:47.561Z,22.47
2019-03-02T23:31:18.607Z,23.70
2019-03-02T23:33:48.441Z,25.40
2019-03-02T23:36:23.876Z,29.90
2019-03-02T23:38:57.002Z,30.90
2019-03-02T23:41:29.640Z,28.27
2019-03-02T23:43:59.923Z,30.17
2019-03-02T23:46:29.738Z,29.57
2019-03-02T23:48:59.713Z,22.30
2019-03-02T23:51:31.505Z,22.40
2019-03-02T23:54:04.847Z,24.63
2019-03-02T23:56:43.504Z,22.50
2019-03-02T23:59:14.925Z,23.90
